Time;durP1;ratioP1;P1;durP2;ratioP2;P2;SDS_P1;SDS_P2;PMS_P1;PMS_P2;Temp;Humidity;BMP_temperature;BMP_pressure;BME280_temperature;BME280_humidity;BME280_pressure;Samples;Min_cycle;Max_cycle;Signal;HPM_P1;HPM_P2
2022/12/13 00:03:48;;;;;;;18.67;8.50;;;;;;;;;;10191059;29;20052;-87
2022/12/13 00:08:53;;;;;;;19.90;9.20;;;;;;;;;;10199101;29;20071;-84
2022/12/13 00:13:57;;;;;;;20.13;9.15;;;;;;;;;;10186151;29;20044;-84
2022/12/13 00:19:02;;;;;;;20.95;10.00;;;;;;;;;;10216993;29;20132;-83
2022/12/13 00:24:07;;;;;;;18.27;8.88;;;;;;;;;;10185688;29;20107;-86
2022/12/13 00:29:11;;;;;;;15.35;7.47;;;;;;;;;;10184597;29;20438;-83
2022/12/13 00:34:17;;;;;;;17.05;6.88;;;;;;;;;;10206778;28;20044;-85
2022/12/13 00:39:21;;;;;;;14.27;6.97;;;;;;;;;;10180552;29;20454;-85
2022/12/13 00:44:25;;;;;;;18.60;8.00;;;;;;;;;;10204376;29;20463;-85
2022/12/13 00:49:30;;;;;;;18.60;7.97;;;;;;;;;;10198788;29;20043;-85
2022/12/13 00:54:34;;;;;;;16.20;7.63;;;;;;;;;;10226320;29;20114;-85
2022/12/13 00:59:37;;;;;;;10.80;5.63;;;;;;;;;;10196031;29;20546;-83
2022/12/13 01:04:42;;;;;;;12.98;7.20;;;;;;;;;;10200111;29;20110;-83
2022/12/13 01:09:45;;;;;;;10.95;5.70;;;;;;;;;;10186648;29;20036;-83
2022/12/13 01:14:49;;;;;;;10.43;5.13;;;;;;;;;;10199630;29;20064;-83
2022/12/13 01:19:58;;;;;;;11.82;5.80;;;;;;;;;;10177102;29;20047;-83
2022/12/13 01:25:01;;;;;;;10.20;5.18;;;;;;;;;;10179374;29;20055;-83
2022/12/13 01:30:06;;;;;;;9.27;4.53;;;;;;;;;;10218145;29;20110;-86
2022/12/13 01:35:12;;;;;;;13.73;6.13;;;;;;;;;;10213895;29;20311;-86
2022/12/13 01:40:16;;;;;;;13.75;5.93;;;;;;;;;;10203184;29;20077;-85
2022/12/13 01:45:24;;;;;;;9.00;5.20;;;;;;;;;;10213498;29;20714;-85
2022/12/13 01:50:32;;;;;;;14.15;6.70;;;;;;;;;;10193108;29;20035;-88
2022/12/13 01:55:39;;;;;;;11.05;6.43;;;;;;;;;;10193745;29;20569;-84
2022/12/13 02:00:46;;;;;;;11.70;6.68;;;;;;;;;;10206302;29;20039;-84
2022/12/13 02:05:57;;;;;;;13.50;6.70;;;;;;;;;;10206532;29;20467;-84
2022/12/13 02:11:00;;;;;;;13.85;6.32;;;;;;;;;;10191051;29;20122;-83
2022/12/13 02:16:12;;;;;;;12.25;6.03;;;;;;;;;;10191805;29;20047;-86
2022/12/13 02:21:25;;;;;;;14.35;6.75;;;;;;;;;;10211944;28;20048;-84
2022/12/13 02:26:56;;;;;;;10.80;5.20;;;;;;;;;;10199312;29;20211;-84
2022/12/13 02:32:06;;;;;;;13.95;6.57;;;;;;;;;;10197200;29;20094;-84
2022/12/13 02:37:18;;;;;;;16.30;7.70;;;;;;;;;;10182440;29;20700;-88
2022/12/13 02:42:27;;;;;;;17.10;7.95;;;;;;;;;;10197537;29;20127;-85
2022/12/13 02:47:34;;;;;;;12.70;7.00;;;;;;;;;;10170841;29;20039;-86
2022/12/13 02:52:41;;;;;;;16.92;8.35;;;;;;;;;;10185130;28;20427;-83
2022/12/13 02:57:47;;;;;;;15.68;7.30;;;;;;;;;;10198953;29;20035;-84
2022/12/13 03:03:10;;;;;;;14.80;7.28;;;;;;;;;;10165626;29;20056;-83
2022/12/13 03:08:26;;;;;;;16.65;7.68;;;;;;;;;;10169861;29;20043;-84
2022/12/13 03:13:41;;;;;;;16.20;8.00;;;;;;;;;;10181212;29;20117;-84
2022/12/13 03:18:47;;;;;;;16.23;9.00;;;;;;;;;;10165081;29;20051;-83
2022/12/13 03:23:51;;;;;;;20.00;8.55;;;;;;;;;;10159889;29;20172;-83
2022/12/13 03:28:54;;;;;;;17.90;8.00;;;;;;;;;;10176329;29;20059;-83
2022/12/13 03:33:59;;;;;;;15.75;7.93;;;;;;;;;;10180939;29;20144;-84
2022/12/13 03:39:03;;;;;;;13.77;7.00;;;;;;;;;;10197505;29;20422;-84
2022/12/13 03:44:08;;;;;;;10.40;5.65;;;;;;;;;;10178205;29;20065;-84
2022/12/13 03:49:13;;;;;;;13.55;6.35;;;;;;;;;;10195398;29;20046;-85
2022/12/13 03:54:19;;;;;;;13.85;6.60;;;;;;;;;;10194676;29;20139;-88
2022/12/13 03:59:22;;;;;;;15.43;7.10;;;;;;;;;;10221484;29;20122;-85
2022/12/13 04:04:27;;;;;;;16.15;7.90;;;;;;;;;;10203214;29;20139;-85
2022/12/13 04:09:31;;;;;;;14.63;7.00;;;;;;;;;;10171602;29;20368;-83
2022/12/13 04:14:34;;;;;;;15.57;8.35;;;;;;;;;;10164451;29;20107;-84
2022/12/13 04:19:39;;;;;;;15.98;8.00;;;;;;;;;;10166244;29;20043;-83
2022/12/13 04:24:42;;;;;;;14.30;7.40;;;;;;;;;;10172133;29;20047;-84
2022/12/13 04:29:46;;;;;;;13.25;6.85;;;;;;;;;;10189654;29;20662;-84
2022/12/13 04:34:52;;;;;;;13.45;6.75;;;;;;;;;;10164918;29;20089;-86
2022/12/13 04:39:55;;;;;;;14.55;7.47;;;;;;;;;;10203651;29;20048;-86
2022/12/13 04:44:59;;;;;;;11.07;6.07;;;;;;;;;;10174784;29;20083;-84
2022/12/13 04:50:08;;;;;;;18.17;8.02;;;;;;;;;;10200366;29;20043;-84
2022/12/13 04:55:12;;;;;;;16.27;7.63;;;;;;;;;;10151842;29;20044;-84
2022/12/13 05:00:17;;;;;;;;;;;;;;;;;;10178848;29;20039;-85
2022/12/13 05:05:25;;;;;;;13.70;6.90;;;;;;;;;;10179209;29;20327;-84
2022/12/13 05:10:29;;;;;;;11.75;6.88;;;;;;;;;;10212168;29;20039;-88
2022/12/13 05:15:39;;;;;;;14.63;8.30;;;;;;;;;;10204656;29;20047;-90
2022/12/13 05:20:45;;;;;;;15.38;8.23;;;;;;;;;;10216049;28;20130;-89
2022/12/13 05:25:49;;;;;;;16.92;7.43;;;;;;;;;;10168333;29;20100;-89
2022/12/13 05:30:53;;;;;;;12.77;6.90;;;;;;;;;;10205059;29;20146;-89
2022/12/13 05:35:58;;;;;;;20.13;8.32;;;;;;;;;;10196624;29;20055;-88
2022/12/13 05:41:06;;;;;;;17.08;7.55;;;;;;;;;;10217165;29;20047;-89
2022/12/13 05:46:11;;;;;;;13.82;7.53;;;;;;;;;;10216104;29;20503;-87
2022/12/13 05:51:22;;;;;;;14.07;7.70;;;;;;;;;;10210728;29;20039;-88
2022/12/13 05:56:29;;;;;;;14.10;7.13;;;;;;;;;;10211845;29;20627;-88
2022/12/13 06:01:35;;;;;;;;;;;;;;;;;;10184733;29;20043;-88
2022/12/13 06:06:40;;;;;;;11.32;5.93;;;;;;;;;;10177715;29;20177;-83
2022/12/13 06:11:44;;;;;;;19.97;8.53;;;;;;;;;;10190506;29;20426;-83
2022/12/13 06:16:47;;;;;;;13.30;7.25;;;;;;;;;;10196560;29;20338;-87
2022/12/13 06:21:54;;;;;;;19.40;9.95;;;;;;;;;;10169981;29;20044;-87
2022/12/13 06:26:59;;;;;;;17.02;9.13;;;;;;;;;;10214948;29;20043;-87
2022/12/13 06:32:03;;;;;;;17.83;8.73;;;;;;;;;;10192624;29;20050;-85
2022/12/13 06:37:11;;;;;;;14.77;8.07;;;;;;;;;;10196841;29;20139;-90
2022/12/13 06:42:24;;;;;;;18.27;8.48;;;;;;;;;;10211910;29;20451;-90
2022/12/13 06:47:27;;;;;;;15.10;8.10;;;;;;;;;;10226244;29;20051;-91
2022/12/13 06:52:33;;;;;;;14.23;7.88;;;;;;;;;;10229613;29;20071;-91
2022/12/13 06:57:37;;;;;;;15.73;8.65;;;;;;;;;;10202285;29;20047;-91
2022/12/13 07:02:40;;;;;;;18.15;10.15;;;;;;;;;;10226080;29;20043;-88
2022/12/13 07:07:45;;;;;;;17.65;9.13;;;;;;;;;;10213322;29;20043;-89
2022/12/13 07:12:49;;;;;;;16.47;9.03;;;;;;;;;;10214067;29;20050;-88
2022/12/13 07:29:03;;;;;;;20.83;9.88;;;;;;;;;;10215491;29;20048;-86
2022/12/13 07:34:07;;;;;;;18.40;9.63;;;;;;;;;;10222951;28;20043;-87
2022/12/13 07:39:12;;;;;;;20.70;10.40;;;;;;;;;;10224105;29;20074;-86
2022/12/13 07:44:18;;;;;;;19.88;9.07;;;;;;;;;;10202238;29;20143;-84
2022/12/13 07:49:27;;;;;;;15.15;8.48;;;;;;;;;;10202019;28;20063;-84
2022/12/13 07:54:30;;;;;;;18.77;8.68;;;;;;;;;;10192645;28;20600;-87
2022/12/13 07:59:35;;;;;;;15.27;8.25;;;;;;;;;;10214704;28;20751;-87
2022/12/13 08:04:42;;;;;;;17.77;8.63;;;;;;;;;;10198663;28;20118;-88
2022/12/13 08:09:46;;;;;;;17.30;9.07;;;;;;;;;;10205951;28;20039;-86
2022/12/13 08:14:55;;;;;;;16.92;9.10;;;;;;;;;;10195634;29;20055;-89
2022/12/13 08:19:58;;;;;;;17.33;9.27;;;;;;;;;;10183360;29;20086;-87
2022/12/13 08:25:02;;;;;;;15.07;7.97;;;;;;;;;;10212069;29;20555;-87
2022/12/13 08:30:11;;;;;;;16.13;8.73;;;;;;;;;;10192204;29;20044;-88
2022/12/13 08:35:16;;;;;;;20.75;9.70;;;;;;;;;;10191254;28;20058;-88
2022/12/13 08:40:22;;;;;;;16.50;8.95;;;;;;;;;;10185046;29;20110;-87
2022/12/13 08:45:31;;;;;;;15.52;8.45;;;;;;;;;;10196734;28;20047;-86
2022/12/13 08:50:34;;;;;;;14.10;7.25;;;;;;;;;;10195639;28;20243;-86
2022/12/13 08:55:37;;;;;;;18.17;8.63;;;;;;;;;;10197569;28;20079;-88
2022/12/13 09:00:45;;;;;;;16.27;8.25;;;;;;;;;;10211989;28;20043;-85
2022/12/13 09:05:48;;;;;;;15.40;8.25;;;;;;;;;;10213430;28;20144;-86
2022/12/13 09:11:06;;;;;;;12.50;6.75;;;;;;;;;;10204787;28;20043;-87
2022/12/13 09:16:17;;;;;;;14.15;6.45;;;;;;;;;;10185861;29;20073;-84
2022/12/13 09:21:20;;;;;;;12.45;6.13;;;;;;;;;;10179758;29;20058;-84
2022/12/13 09:26:27;;;;;;;15.35;7.38;;;;;;;;;;10197208;29;20055;-86
2022/12/13 09:31:36;;;;;;;11.65;6.53;;;;;;;;;;10207019;28;20488;-87
2022/12/13 09:36:41;;;;;;;18.10;8.50;;;;;;;;;;10195119;29;20043;-87
2022/12/13 09:41:48;;;;;;;26.27;10.68;;;;;;;;;;10185124;29;20048;-87
2022/12/13 09:46:56;;;;;;;15.68;7.68;;;;;;;;;;10202176;28;20062;-87
2022/12/13 09:52:02;;;;;;;23.17;10.32;;;;;;;;;;10197072;28;20138;-87
2022/12/13 09:57:17;;;;;;;17.15;8.07;;;;;;;;;;10201579;28;20055;-87
2022/12/13 10:02:26;;;;;;;13.82;6.28;;;;;;;;;;10203928;29;20502;-87
2022/12/13 10:07:30;;;;;;;11.77;6.07;;;;;;;;;;10196914;29;20467;-87
2022/12/13 10:12:35;;;;;;;17.80;8.02;;;;;;;;;;10203077;29;20048;-87
2022/12/13 10:17:46;;;;;;;11.83;5.83;;;;;;;;;;10208254;28;20048;-86
2022/12/13 10:22:52;;;;;;;13.25;6.93;;;;;;;;;;10198182;29;20502;-86
2022/12/13 10:28:10;;;;;;;13.38;6.95;;;;;;;;;;10200383;28;20051;-85
2022/12/13 10:33:24;;;;;;;19.92;9.82;;;;;;;;;;10198885;29;20131;-87
2022/12/13 10:38:30;;;;;;;17.23;7.35;;;;;;;;;;10208821;28;20743;-84
2022/12/13 10:43:34;;;;;;;;;;;;;;;;;;10196469;29;20051;-85
2022/12/13 10:48:48;;;;;;;10.70;6.00;;;;;;;;;;10203610;28;19926;-85
2022/12/13 10:53:55;;;;;;;12.13;5.63;;;;;;;;;;10199974;29;20494;-84
2022/12/13 10:59:11;;;;;;;8.48;4.40;;;;;;;;;;10221472;29;20051;-84
2022/12/13 11:04:26;;;;;;;7.75;3.92;;;;;;;;;;10205893;29;20047;-84
2022/12/13 11:09:32;;;;;;;7.22;4.03;;;;;;;;;;10220150;28;20069;-84
2022/12/13 11:14:40;;;;;;;6.20;3.80;;;;;;;;;;10235739;28;20049;-84
2022/12/13 11:19:49;;;;;;;9.82;4.85;;;;;;;;;;10218662;28;20291;-85
2022/12/13 11:24:57;;;;;;;7.25;3.67;;;;;;;;;;10202829;28;20070;-84
2022/12/13 11:30:11;;;;;;;5.28;2.95;;;;;;;;;;10266528;28;20043;-85
2022/12/13 11:35:22;;;;;;;8.55;4.43;;;;;;;;;;10233973;28;20304;-85
2022/12/13 11:40:28;;;;;;;6.82;3.58;;;;;;;;;;10259887;28;20051;-85
2022/12/13 11:45:37;;;;;;;4.78;2.78;;;;;;;;;;10240518;28;20414;-85
2022/12/13 11:50:44;;;;;;;7.90;3.63;;;;;;;;;;10260631;28;20054;-85
2022/12/13 11:55:54;;;;;;;6.47;3.13;;;;;;;;;;10236695;28;20067;-85
2022/12/13 12:01:04;;;;;;;7.50;4.15;;;;;;;;;;10230711;28;20065;-86
2022/12/13 12:06:15;;;;;;;6.88;4.40;;;;;;;;;;10245265;28;20043;-86
2022/12/13 12:11:27;;;;;;;10.02;4.60;;;;;;;;;;10209222;28;20577;-85
2022/12/13 12:16:37;;;;;;;8.00;3.90;;;;;;;;;;10219257;29;20048;-86
2022/12/13 12:21:54;;;;;;;8.80;4.35;;;;;;;;;;10201642;28;20043;-86
2022/12/13 12:27:27;;;;;;;6.68;3.30;;;;;;;;;;10196252;28;20166;-86
2022/12/13 12:32:37;;;;;;;5.18;2.95;;;;;;;;;;10198287;29;20044;-83
2022/12/13 12:37:52;;;;;;;5.60;3.67;;;;;;;;;;10241546;28;20290;-86
2022/12/13 12:43:06;;;;;;;6.53;3.53;;;;;;;;;;10231593;28;20049;-86
2022/12/13 12:48:35;;;;;;;7.68;4.05;;;;;;;;;;10223651;28;20067;-84
2022/12/13 12:54:18;;;;;;;5.88;3.78;;;;;;;;;;10194735;28;20043;-83
2022/12/13 12:59:29;;;;;;;8.32;4.25;;;;;;;;;;10224289;28;20595;-83
2022/12/13 13:04:38;;;;;;;7.68;4.38;;;;;;;;;;10200550;29;20414;-84
2022/12/13 13:09:44;;;;;;;6.97;3.20;;;;;;;;;;10231921;28;20430;-84
2022/12/13 13:14:48;;;;;;;7.85;4.10;;;;;;;;;;10207359;28;20477;-84
2022/12/13 13:19:54;;;;;;;5.47;3.47;;;;;;;;;;10206060;29;20082;-87
2022/12/13 13:25:29;;;;;;;6.32;3.33;;;;;;;;;;10204485;28;20507;-86
2022/12/13 13:30:33;;;;;;;5.90;3.17;;;;;;;;;;10267894;28;20070;-86
2022/12/13 13:35:49;;;;;;;5.18;3.40;;;;;;;;;;10214476;29;20051;-85
2022/12/13 13:40:54;;;;;;;6.60;3.72;;;;;;;;;;10252700;28;20430;-86
2022/12/13 13:46:10;;;;;;;7.03;4.18;;;;;;;;;;10203485;28;20075;-84
2022/12/13 13:51:46;;;;;;;5.22;3.17;;;;;;;;;;10201815;28;20037;-84
2022/12/13 13:57:43;;;;;;;6.68;3.92;;;;;;;;;;10212328;29;20467;-86
2022/12/13 14:03:40;;;;;;;5.13;3.40;;;;;;;;;;10216842;28;20442;-86
2022/12/13 14:09:00;;;;;;;5.85;3.30;;;;;;;;;;10250584;28;20082;-85
2022/12/13 14:14:34;;;;;;;7.43;4.32;;;;;;;;;;10218445;29;20157;-83
2022/12/13 14:20:06;;;;;;;7.72;3.70;;;;;;;;;;10187405;28;20065;-84
2022/12/13 14:25:24;;;;;;;6.05;2.95;;;;;;;;;;10227414;28;20514;-85
2022/12/13 14:30:29;;;;;;;8.32;4.03;;;;;;;;;;10204702;29;20503;-85
2022/12/13 14:35:34;;;;;;;5.07;2.87;;;;;;;;;;10211368;28;20069;-86
2022/12/13 14:40:47;;;;;;;5.90;3.60;;;;;;;;;;10251082;28;20300;-86
2022/12/13 14:45:56;;;;;;;9.52;3.92;;;;;;;;;;10208140;28;20410;-86
2022/12/13 14:51:00;;;;;;;4.95;3.10;;;;;;;;;;10208112;28;20066;-86
2022/12/13 14:56:10;;;;;;;5.78;3.17;;;;;;;;;;10226531;28;20086;-87
2022/12/13 15:07:05;;;;;;;5.28;3.00;;;;;;;;;;10122650;29;20062;-88
2022/12/13 15:12:11;;;;;;;5.80;3.47;;;;;;;;;;10134743;29;20382;-89
2022/12/13 15:17:26;;;;;;;5.75;3.22;;;;;;;;;;10142529;29;20075;-89
2022/12/13 15:22:33;;;;;;;6.32;3.53;;;;;;;;;;10139454;29;20044;-90
2022/12/13 15:27:38;;;;;;;;;;;;;;;;;;10139602;29;20078;-92
2022/12/13 15:33:07;;;;;;;6.07;3.47;;;;;;;;;;10137763;29;19986;-90
2022/12/13 15:38:14;;;;;;;8.23;4.25;;;;;;;;;;10126198;29;20049;-89
2022/12/13 15:43:21;;;;;;;9.43;4.60;;;;;;;;;;10114092;29;20041;-90
2022/12/13 15:48:26;;;;;;;;;;;;;;;;;;10154380;29;20052;-90
2022/12/13 15:53:31;;;;;;;6.22;3.55;;;;;;;;;;10150193;29;19923;-91
2022/12/13 15:58:37;;;;;;;7.97;4.00;;;;;;;;;;10150744;29;20504;-90
2022/12/13 16:03:43;;;;;;;7.32;4.10;;;;;;;;;;10140219;29;20099;-89
2022/12/13 16:08:52;;;;;;;6.82;4.25;;;;;;;;;;10159504;29;20140;-90
2022/12/13 16:14:35;;;;;;;6.57;3.28;;;;;;;;;;10136308;29;20044;-89
2022/12/13 16:19:39;;;;;;;4.53;2.97;;;;;;;;;;10157129;29;20052;-89
2022/12/13 16:24:44;;;;;;;6.57;3.75;;;;;;;;;;10136910;29;20073;-90
2022/12/13 16:29:48;;;;;;;9.05;4.18;;;;;;;;;;10149182;29;20052;-91
2022/12/13 16:34:52;;;;;;;5.97;4.07;;;;;;;;;;10152576;29;20040;-90
2022/12/13 16:40:00;;;;;;;5.65;3.55;;;;;;;;;;10145374;29;20169;-90
2022/12/13 16:45:07;;;;;;;8.50;4.38;;;;;;;;;;10151525;29;20044;-90
2022/12/13 16:50:30;;;;;;;9.40;4.78;;;;;;;;;;10128171;29;20048;-90
2022/12/13 16:55:35;;;;;;;8.02;4.30;;;;;;;;;;10147818;29;20119;-90
2022/12/13 17:00:41;;;;;;;7.85;3.75;;;;;;;;;;10153995;29;20055;-90
2022/12/13 17:05:45;;;;;;;6.45;3.42;;;;;;;;;;10161415;29;20052;-92
2022/12/13 17:10:51;;;;;;;6.15;3.35;;;;;;;;;;10114203;29;20147;-90
2022/12/13 17:15:55;;;;;;;6.18;3.15;;;;;;;;;;10123007;29;20351;-87
2022/12/13 17:21:05;;;;;;;7.80;3.10;;;;;;;;;;10134846;29;20051;-92
2022/12/13 17:26:11;;;;;;;5.68;3.40;;;;;;;;;;10143504;29;20087;-88
2022/12/13 17:31:18;;;;;;;8.10;4.05;;;;;;;;;;10134792;29;20079;-88
2022/12/13 17:36:25;;;;;;;8.35;3.72;;;;;;;;;;10148392;29;20067;-89
2022/12/13 17:41:32;;;;;;;8.50;3.83;;;;;;;;;;10143203;29;20492;-89
2022/12/13 17:46:36;;;;;;;6.38;4.00;;;;;;;;;;10145251;29;20500;-88
2022/12/13 17:51:40;;;;;;;6.55;3.67;;;;;;;;;;10136780;29;20092;-90
2022/12/13 17:56:45;;;;;;;8.38;4.70;;;;;;;;;;10150979;29;20050;-89
2022/12/13 18:01:49;;;;;;;7.90;4.03;;;;;;;;;;10135851;29;20083;-88
2022/12/13 18:06:53;;;;;;;8.18;3.70;;;;;;;;;;10119142;29;20045;-87
2022/12/13 18:11:58;;;;;;;6.55;3.97;;;;;;;;;;10120719;29;20049;-88
2022/12/13 18:17:02;;;;;;;5.93;3.60;;;;;;;;;;10132990;29;20049;-91
2022/12/13 18:22:09;;;;;;;8.00;2.97;;;;;;;;;;10143170;29;20083;-90
2022/12/13 18:27:14;;;;;;;5.43;3.15;;;;;;;;;;10142513;29;20071;-89
2022/12/13 18:32:18;;;;;;;7.33;4.47;;;;;;;;;;10138921;29;20452;-89
2022/12/13 18:37:21;;;;;;;5.93;3.47;;;;;;;;;;10156785;29;20583;-88
2022/12/13 18:42:26;;;;;;;7.10;3.60;;;;;;;;;;10154241;29;20201;-88
2022/12/13 18:47:30;;;;;;;5.57;3.23;;;;;;;;;;10153975;29;20036;-88
2022/12/13 18:52:34;;;;;;;6.03;3.40;;;;;;;;;;10141142;29;20056;-88
2022/12/13 18:57:39;;;;;;;9.05;4.30;;;;;;;;;;10145121;29;20468;-88
2022/12/13 19:02:43;;;;;;;5.60;3.20;;;;;;;;;;10126730;29;20082;-87
2022/12/13 19:07:47;;;;;;;7.07;3.53;;;;;;;;;;10154415;29;20466;-88
2022/12/13 19:12:52;;;;;;;7.13;3.70;;;;;;;;;;10133522;29;20052;-88
2022/12/13 19:17:56;;;;;;;9.38;4.50;;;;;;;;;;10140629;29;20056;-88
2022/12/13 19:22:59;;;;;;;7.20;4.05;;;;;;;;;;10149146;29;20060;-89
2022/12/13 19:28:04;;;;;;;7.28;3.70;;;;;;;;;;10137325;29;20614;-90
2022/12/13 19:33:08;;;;;;;4.30;2.95;;;;;;;;;;10155717;29;20083;-90
2022/12/13 19:38:11;;;;;;;6.97;3.63;;;;;;;;;;10160831;29;20104;-90
2022/12/13 19:43:16;;;;;;;7.38;4.13;;;;;;;;;;10162637;29;20393;-92
2022/12/13 19:48:20;;;;;;;6.88;3.80;;;;;;;;;;10141263;29;20048;-89
2022/12/13 19:53:24;;;;;;;5.85;3.55;;;;;;;;;;10146902;29;20051;-92
2022/12/13 19:58:29;;;;;;;10.60;4.35;;;;;;;;;;10155049;29;20147;-90
2022/12/13 20:03:33;;;;;;;8.23;4.55;;;;;;;;;;10168908;29;20109;-90
2022/12/13 20:08:40;;;;;;;7.25;4.03;;;;;;;;;;10170623;29;20072;-90
2022/12/13 20:13:45;;;;;;;6.82;3.70;;;;;;;;;;10146515;29;20080;-89
2022/12/13 20:18:53;;;;;;;6.67;3.53;;;;;;;;;;10151426;29;20052;-87
2022/12/13 20:23:57;;;;;;;5.85;3.08;;;;;;;;;;10140965;29;20041;-87
2022/12/13 20:29:04;;;;;;;8.48;5.05;;;;;;;;;;10124767;29;20303;-87
2022/12/13 20:34:13;;;;;;;5.43;3.33;;;;;;;;;;10127576;29;20155;-88
2022/12/13 20:39:17;;;;;;;6.05;3.33;;;;;;;;;;10139287;29;20632;-88
2022/12/13 20:44:22;;;;;;;6.45;3.60;;;;;;;;;;10150884;29;20043;-90
2022/12/13 20:49:26;;;;;;;5.67;3.20;;;;;;;;;;10156230;29;20075;-89
2022/12/13 20:54:30;;;;;;;5.95;3.33;;;;;;;;;;10155130;29;20658;-90
2022/12/13 20:59:35;;;;;;;5.15;2.95;;;;;;;;;;10160964;29;20076;-90
2022/12/13 21:04:40;;;;;;;5.97;3.57;;;;;;;;;;10165588;29;20095;-89
2022/12/13 21:09:43;;;;;;;5.90;3.50;;;;;;;;;;10153016;29;20431;-89
2022/12/13 21:14:49;;;;;;;5.22;2.97;;;;;;;;;;10129980;29;20051;-87
2022/12/13 21:20:00;;;;;;;6.78;3.80;;;;;;;;;;10145017;29;20136;-89
2022/12/13 21:25:05;;;;;;;8.07;4.15;;;;;;;;;;10106139;29;20056;-86
2022/12/13 21:30:11;;;;;;;9.18;4.45;;;;;;;;;;10136512;29;20056;-86
2022/12/13 21:35:14;;;;;;;8.50;4.35;;;;;;;;;;10146316;29;20132;-86
2022/12/13 21:40:19;;;;;;;6.80;4.40;;;;;;;;;;10167751;29;20044;-86
2022/12/13 21:45:24;;;;;;;7.73;3.60;;;;;;;;;;10166981;29;20443;-86
2022/12/13 21:50:28;;;;;;;6.13;4.22;;;;;;;;;;10151026;29;20143;-86
2022/12/13 21:55:32;;;;;;;7.10;3.92;;;;;;;;;;10151216;29;20052;-86
2022/12/13 22:00:44;;;;;;;7.38;4.18;;;;;;;;;;10161681;29;20048;-87
2022/12/13 22:05:47;;;;;;;6.10;3.88;;;;;;;;;;10145303;29;20048;-83
2022/12/13 22:16:14;;;;;;;8.38;4.18;;;;;;;;;;10155237;29;20046;-84
2022/12/13 22:21:17;;;;;;;5.60;3.43;;;;;;;;;;10153561;29;20048;-83
2022/12/13 22:26:21;;;;;;;6.15;3.85;;;;;;;;;;10147481;29;20045;-83
2022/12/13 22:31:26;;;;;;;6.82;3.55;;;;;;;;;;10133898;29;20416;-83
2022/12/13 22:36:31;;;;;;;6.07;3.17;;;;;;;;;;10155887;29;20040;-82
2022/12/13 22:41:35;;;;;;;5.05;3.10;;;;;;;;;;10157292;29;20055;-84
2022/12/13 22:46:40;;;;;;;3.42;2.60;;;;;;;;;;10142324;29;20072;-83
2022/12/13 22:51:44;;;;;;;4.37;2.80;;;;;;;;;;10127561;29;20047;-83
2022/12/13 22:56:49;;;;;;;3.78;2.42;;;;;;;;;;10136387;29;20036;-83
2022/12/13 23:01:56;;;;;;;5.22;3.20;;;;;;;;;;10131865;29;20432;-84
2022/12/13 23:07:03;;;;;;;5.85;3.33;;;;;;;;;;10143905;29;20051;-83
2022/12/13 23:17:30;;;;;;;6.63;3.60;;;;;;;;;;10131561;29;20423;-83
2022/12/13 23:22:33;;;;;;;4.97;2.60;;;;;;;;;;10121880;29;20048;-85
2022/12/13 23:27:37;;;;;;;5.68;3.05;;;;;;;;;;10146358;29;20335;-83
2022/12/13 23:32:42;;;;;;;6.07;3.17;;;;;;;;;;10132344;29;20120;-84
2022/12/13 23:37:45;;;;;;;3.72;2.25;;;;;;;;;;10152611;29;20044;-83
2022/12/13 23:42:48;;;;;;;3.42;2.38;;;;;;;;;;10139464;29;20548;-84
2022/12/13 23:47:56;;;;;;;;;;;;;;;;;;10160176;29;20058;-85
2022/12/13 23:52:59;;;;;;;2.50;1.77;;;;;;;;;;10151377;29;19927;-85
2022/12/13 23:58:03;;;;;;;2.70;2.20;;;;;;;;;;10148059;29;20056;-85
